sensor_id;sensor_type;location;lat;lon;timestamp;temperature;humidity
4425;DHT22;2225;53.568;13.266;2023-04-25T00:02:13;12.70;92.50
4425;DHT22;2225;53.568;13.266;2023-04-25T00:04:41;12.70;92.40
4425;DHT22;2225;53.568;13.266;2023-04-25T00:07:09;12.70;92.60
4425;DHT22;2225;53.568;13.266;2023-04-25T00:09:36;12.70;92.40
4425;DHT22;2225;53.568;13.266;2023-04-25T00:12:04;12.80;92.40
4425;DHT22;2225;53.568;13.266;2023-04-25T00:14:30;12.80;92.40
4425;DHT22;2225;53.568;13.266;2023-04-25T00:17:00;12.80;92.30
4425;DHT22;2225;53.568;13.266;2023-04-25T00:19:28;12.80;92.30
4425;DHT22;2225;53.568;13.266;2023-04-25T00:21:55;12.80;92.30
4425;DHT22;2225;53.568;13.266;2023-04-25T00:24:22;12.80;92.30
4425;DHT22;2225;53.568;13.266;2023-04-25T00:26:49;12.80;92.30
4425;DHT22;2225;53.568;13.266;2023-04-25T00:29:16;12.80;92.20
4425;DHT22;2225;53.568;13.266;2023-04-25T00:31:43;12.80;92.20
4425;DHT22;2225;53.568;13.266;2023-04-25T00:34:10;12.80;92.20
4425;DHT22;2225;53.568;13.266;2023-04-25T00:36:37;12.90;92.20
4425;DHT22;2225;53.568;13.266;2023-04-25T00:39:04;12.80;92.20
4425;DHT22;2225;53.568;13.266;2023-04-25T00:41:32;12.90;92.20
4425;DHT22;2225;53.568;13.266;2023-04-25T00:44:00;12.80;92.20
4425;DHT22;2225;53.568;13.266;2023-04-25T00:46:28;12.80;92.20
4425;DHT22;2225;53.568;13.266;2023-04-25T00:48:56;12.90;92.20
4425;DHT22;2225;53.568;13.266;2023-04-25T00:51:24;12.90;92.20
4425;DHT22;2225;53.568;13.266;2023-04-25T00:53:53;12.90;92.20
4425;DHT22;2225;53.568;13.266;2023-04-25T00:56:20;12.80;92.20
4425;DHT22;2225;53.568;13.266;2023-04-25T00:58:48;12.90;92.20
4425;DHT22;2225;53.568;13.266;2023-04-25T01:01:16;12.90;92.20
4425;DHT22;2225;53.568;13.266;2023-04-25T01:03:46;12.90;92.20
4425;DHT22;2225;53.568;13.266;2023-04-25T01:06:13;12.90;92.20
4425;DHT22;2225;53.568;13.266;2023-04-25T01:08:42;12.90;92.20
4425;DHT22;2225;53.568;13.266;2023-04-25T01:11:09;12.90;92.30
4425;DHT22;2225;53.568;13.266;2023-04-25T01:13:36;12.90;92.20
4425;DHT22;2225;53.568;13.266;2023-04-25T01:16:03;12.90;92.20
4425;DHT22;2225;53.568;13.266;2023-04-25T01:18:31;12.90;92.20
4425;DHT22;2225;53.568;13.266;2023-04-25T01:21:10;12.90;92.30
4425;DHT22;2225;53.568;13.266;2023-04-25T01:23:39;12.90;92.30
4425;DHT22;2225;53.568;13.266;2023-04-25T01:26:09;12.90;92.30
4425;DHT22;2225;53.568;13.266;2023-04-25T01:28:38;12.90;92.20
4425;DHT22;2225;53.568;13.266;2023-04-25T01:31:11;12.90;92.20
4425;DHT22;2225;53.568;13.266;2023-04-25T01:33:38;12.90;92.20
4425;DHT22;2225;53.568;13.266;2023-04-25T01:36:05;12.90;92.20
4425;DHT22;2225;53.568;13.266;2023-04-25T01:38:34;13.00;92.10
4425;DHT22;2225;53.568;13.266;2023-04-25T01:41:02;12.90;92.00
4425;DHT22;2225;53.568;13.266;2023-04-25T01:43:29;12.90;92.00
4425;DHT22;2225;53.568;13.266;2023-04-25T01:45:56;12.90;92.00
4425;DHT22;2225;53.568;13.266;2023-04-25T01:48:23;12.90;91.90
4425;DHT22;2225;53.568;13.266;2023-04-25T01:50:51;12.90;92.00
4425;DHT22;2225;53.568;13.266;2023-04-25T01:53:18;12.90;92.00
4425;DHT22;2225;53.568;13.266;2023-04-25T01:55:45;12.90;92.00
4425;DHT22;2225;53.568;13.266;2023-04-25T01:58:15;13.00;92.10
4425;DHT22;2225;53.568;13.266;2023-04-25T02:01:00;13.00;92.20
4425;DHT22;2225;53.568;13.266;2023-04-25T02:03:34;13.00;92.20
4425;DHT22;2225;53.568;13.266;2023-04-25T02:06:04;13.00;92.40
4425;DHT22;2225;53.568;13.266;2023-04-25T02:08:34;13.00;92.40
4425;DHT22;2225;53.568;13.266;2023-04-25T02:11:01;13.00;92.40
4425;DHT22;2225;53.568;13.266;2023-04-25T02:13:36;13.00;92.50
4425;DHT22;2225;53.568;13.266;2023-04-25T02:16:15;13.00;92.50
4425;DHT22;2225;53.568;13.266;2023-04-25T02:18:42;13.00;92.50
4425;DHT22;2225;53.568;13.266;2023-04-25T02:21:11;13.00;92.50
4425;DHT22;2225;53.568;13.266;2023-04-25T02:23:38;13.00;92.50
4425;DHT22;2225;53.568;13.266;2023-04-25T02:26:05;13.00;92.40
4425;DHT22;2225;53.568;13.266;2023-04-25T02:28:32;13.00;92.30
4425;DHT22;2225;53.568;13.266;2023-04-25T02:31:03;12.90;92.30
4425;DHT22;2225;53.568;13.266;2023-04-25T02:33:30;12.90;92.30
4425;DHT22;2225;53.568;13.266;2023-04-25T02:35:57;12.90;92.30
4425;DHT22;2225;53.568;13.266;2023-04-25T02:38:24;13.00;92.30
4425;DHT22;2225;53.568;13.266;2023-04-25T02:40:51;13.00;92.30
4425;DHT22;2225;53.568;13.266;2023-04-25T02:43:18;13.00;92.30
4425;DHT22;2225;53.568;13.266;2023-04-25T02:45:45;13.00;92.30
4425;DHT22;2225;53.568;13.266;2023-04-25T02:48:12;13.00;92.40
4425;DHT22;2225;53.568;13.266;2023-04-25T02:50:39;13.00;92.50
4425;DHT22;2225;53.568;13.266;2023-04-25T02:53:06;13.00;92.50
4425;DHT22;2225;53.568;13.266;2023-04-25T02:55:40;12.90;92.40
4425;DHT22;2225;53.568;13.266;2023-04-25T02:58:07;13.00;92.40
4425;DHT22;2225;53.568;13.266;2023-04-25T03:00:43;13.00;92.40
4425;DHT22;2225;53.568;13.266;2023-04-25T03:03:10;13.00;92.40
4425;DHT22;2225;53.568;13.266;2023-04-25T03:05:37;13.00;92.40
4425;DHT22;2225;53.568;13.266;2023-04-25T03:08:05;13.00;92.30
4425;DHT22;2225;53.568;13.266;2023-04-25T03:10:33;13.00;92.20
4425;DHT22;2225;53.568;13.266;2023-04-25T03:13:04;13.00;92.20
4425;DHT22;2225;53.568;13.266;2023-04-25T03:15:31;13.00;92.30
4425;DHT22;2225;53.568;13.266;2023-04-25T03:17:58;13.00;92.30
4425;DHT22;2225;53.568;13.266;2023-04-25T03:20:25;12.90;92.30
4425;DHT22;2225;53.568;13.266;2023-04-25T03:22:52;12.90;92.40
4425;DHT22;2225;53.568;13.266;2023-04-25T03:25:19;12.90;92.50
4425;DHT22;2225;53.568;13.266;2023-04-25T03:27:46;12.90;92.50
4425;DHT22;2225;53.568;13.266;2023-04-25T03:30:14;12.90;92.60
4425;DHT22;2225;53.568;13.266;2023-04-25T03:32:42;12.80;92.60
4425;DHT22;2225;53.568;13.266;2023-04-25T03:35:13;12.80;92.70
4425;DHT22;2225;53.568;13.266;2023-04-25T03:37:40;12.80;92.90
4425;DHT22;2225;53.568;13.266;2023-04-25T03:40:15;12.80;93.00
4425;DHT22;2225;53.568;13.266;2023-04-25T03:43:04;12.90;93.20
4425;DHT22;2225;53.568;13.266;2023-04-25T03:45:32;12.80;93.30
4425;DHT22;2225;53.568;13.266;2023-04-25T03:47:59;12.80;93.30
4425;DHT22;2225;53.568;13.266;2023-04-25T03:50:28;12.80;93.50
4425;DHT22;2225;53.568;13.266;2023-04-25T03:52:55;12.80;93.60
4425;DHT22;2225;53.568;13.266;2023-04-25T03:55:25;12.80;93.60
4425;DHT22;2225;53.568;13.266;2023-04-25T03:57:52;12.70;93.60
4425;DHT22;2225;53.568;13.266;2023-04-25T04:00:19;12.80;93.70
4425;DHT22;2225;53.568;13.266;2023-04-25T04:02:50;12.70;93.70
4425;DHT22;2225;53.568;13.266;2023-04-25T04:05:17;12.70;93.60
4425;DHT22;2225;53.568;13.266;2023-04-25T04:07:51;12.70;93.60
4425;DHT22;2225;53.568;13.266;2023-04-25T04:10:18;12.70;93.60
4425;DHT22;2225;53.568;13.266;2023-04-25T04:12:45;12.70;93.70
4425;DHT22;2225;53.568;13.266;2023-04-25T04:15:12;12.70;93.80
4425;DHT22;2225;53.568;13.266;2023-04-25T04:17:39;12.70;93.80
4425;DHT22;2225;53.568;13.266;2023-04-25T04:20:09;12.70;93.90
4425;DHT22;2225;53.568;13.266;2023-04-25T04:22:38;12.70;93.90
4425;DHT22;2225;53.568;13.266;2023-04-25T04:25:09;12.70;93.90
4425;DHT22;2225;53.568;13.266;2023-04-25T04:27:58;12.70;93.80
4425;DHT22;2225;53.568;13.266;2023-04-25T04:30:43;12.70;93.90
4425;DHT22;2225;53.568;13.266;2023-04-25T04:33:13;12.80;93.80
4425;DHT22;2225;53.568;13.266;2023-04-25T04:35:48;12.70;93.80
4425;DHT22;2225;53.568;13.266;2023-04-25T04:38:16;12.70;93.80
4425;DHT22;2225;53.568;13.266;2023-04-25T04:40:45;12.70;93.80
4425;DHT22;2225;53.568;13.266;2023-04-25T04:43:18;12.70;93.80
4425;DHT22;2225;53.568;13.266;2023-04-25T04:46:01;12.70;93.80
4425;DHT22;2225;53.568;13.266;2023-04-25T04:48:57;12.70;93.80
4425;DHT22;2225;53.568;13.266;2023-04-25T04:51:45;12.70;93.80
4425;DHT22;2225;53.568;13.266;2023-04-25T04:54:32;12.70;93.70
4425;DHT22;2225;53.568;13.266;2023-04-25T04:57:13;12.80;93.80
4425;DHT22;2225;53.568;13.266;2023-04-25T04:59:59;12.80;93.70
4425;DHT22;2225;53.568;13.266;2023-04-25T05:02:52;12.80;93.70
4425;DHT22;2225;53.568;13.266;2023-04-25T05:05:37;12.80;93.70
4425;DHT22;2225;53.568;13.266;2023-04-25T05:08:16;12.80;93.70
4425;DHT22;2225;53.568;13.266;2023-04-25T05:11:03;12.80;93.60
4425;DHT22;2225;53.568;13.266;2023-04-25T05:13:36;12.80;93.60
4425;DHT22;2225;53.568;13.266;2023-04-25T05:16:14;12.80;93.50
4425;DHT22;2225;53.568;13.266;2023-04-25T05:19:07;12.80;93.60
4425;DHT22;2225;53.568;13.266;2023-04-25T05:21:46;12.80;93.50
4425;DHT22;2225;53.568;13.266;2023-04-25T05:24:26;12.80;93.40
4425;DHT22;2225;53.568;13.266;2023-04-25T05:27:11;12.80;93.40
4425;DHT22;2225;53.568;13.266;2023-04-25T05:30:04;12.80;93.30
4425;DHT22;2225;53.568;13.266;2023-04-25T05:32:39;12.80;93.30
4425;DHT22;2225;53.568;13.266;2023-04-25T05:35:07;12.80;93.10
4425;DHT22;2225;53.568;13.266;2023-04-25T05:37:43;12.80;93.10
4425;DHT22;2225;53.568;13.266;2023-04-25T05:40:13;12.80;93.00
4425;DHT22;2225;53.568;13.266;2023-04-25T05:42:53;12.80;92.90
4425;DHT22;2225;53.568;13.266;2023-04-25T05:45:30;12.90;92.90
4425;DHT22;2225;53.568;13.266;2023-04-25T05:48:03;12.90;92.70
4425;DHT22;2225;53.568;13.266;2023-04-25T05:50:48;12.90;92.40
4425;DHT22;2225;53.568;13.266;2023-04-25T05:53:24;12.90;92.40
4425;DHT22;2225;53.568;13.266;2023-04-25T05:55:58;12.90;92.20
4425;DHT22;2225;53.568;13.266;2023-04-25T05:58:26;12.90;92.10
4425;DHT22;2225;53.568;13.266;2023-04-25T06:00:54;12.90;92.00
4425;DHT22;2225;53.568;13.266;2023-04-25T06:03:21;12.80;91.00
4425;DHT22;2225;53.568;13.266;2023-04-25T06:05:49;12.80;90.90
4425;DHT22;2225;53.568;13.266;2023-04-25T06:08:16;12.80;90.40
4425;DHT22;2225;53.568;13.266;2023-04-25T06:10:43;12.70;90.30
4425;DHT22;2225;53.568;13.266;2023-04-25T06:13:10;12.70;90.10
4425;DHT22;2225;53.568;13.266;2023-04-25T06:15:37;12.70;89.80
4425;DHT22;2225;53.568;13.266;2023-04-25T06:18:04;12.70;88.20
4425;DHT22;2225;53.568;13.266;2023-04-25T06:20:33;12.70;87.90
4425;DHT22;2225;53.568;13.266;2023-04-25T06:23:00;12.70;88.00
4425;DHT22;2225;53.568;13.266;2023-04-25T06:25:37;12.70;87.90
4425;DHT22;2225;53.568;13.266;2023-04-25T06:28:04;12.70;88.60
4425;DHT22;2225;53.568;13.266;2023-04-25T06:30:31;12.70;88.20
4425;DHT22;2225;53.568;13.266;2023-04-25T06:33:04;12.70;87.50
4425;DHT22;2225;53.568;13.266;2023-04-25T06:35:32;12.80;87.70
4425;DHT22;2225;53.568;13.266;2023-04-25T06:37:59;12.80;86.80
4425;DHT22;2225;53.568;13.266;2023-04-25T06:40:26;12.80;86.50
4425;DHT22;2225;53.568;13.266;2023-04-25T06:42:53;12.90;86.60
4425;DHT22;2225;53.568;13.266;2023-04-25T06:45:45;12.90;85.30
4425;DHT22;2225;53.568;13.266;2023-04-25T06:48:14;12.90;84.40
4425;DHT22;2225;53.568;13.266;2023-04-25T06:50:42;12.90;84.60
4425;DHT22;2225;53.568;13.266;2023-04-25T06:53:09;12.90;84.00
4425;DHT22;2225;53.568;13.266;2023-04-25T06:55:39;13.00;83.40
4425;DHT22;2225;53.568;13.266;2023-04-25T06:58:12;13.00;83.30
4425;DHT22;2225;53.568;13.266;2023-04-25T07:00:54;13.00;82.90
4425;DHT22;2225;53.568;13.266;2023-04-25T07:03:23;13.00;83.70
4425;DHT22;2225;53.568;13.266;2023-04-25T07:05:55;13.00;83.90
4425;DHT22;2225;53.568;13.266;2023-04-25T07:08:23;13.10;84.20
4425;DHT22;2225;53.568;13.266;2023-04-25T07:10:50;13.10;82.00
4425;DHT22;2225;53.568;13.266;2023-04-25T07:13:17;13.20;80.90
4425;DHT22;2225;53.568;13.266;2023-04-25T07:15:44;13.20;80.60
4425;DHT22;2225;53.568;13.266;2023-04-25T07:18:12;13.20;79.80
4425;DHT22;2225;53.568;13.266;2023-04-25T07:20:39;13.30;79.50
4425;DHT22;2225;53.568;13.266;2023-04-25T07:23:06;13.30;77.50
4425;DHT22;2225;53.568;13.266;2023-04-25T07:25:33;13.40;76.20
4425;DHT22;2225;53.568;13.266;2023-04-25T07:28:00;13.40;76.50
4425;DHT22;2225;53.568;13.266;2023-04-25T07:30:27;13.40;76.40
4425;DHT22;2225;53.568;13.266;2023-04-25T07:32:54;13.50;76.90
4425;DHT22;2225;53.568;13.266;2023-04-25T07:35:22;13.50;75.10
4425;DHT22;2225;53.568;13.266;2023-04-25T07:37:49;13.60;76.40
4425;DHT22;2225;53.568;13.266;2023-04-25T07:40:18;13.70;77.10
4425;DHT22;2225;53.568;13.266;2023-04-25T07:42:49;13.80;74.50
4425;DHT22;2225;53.568;13.266;2023-04-25T07:45:22;13.90;72.90
4425;DHT22;2225;53.568;13.266;2023-04-25T07:47:50;14.00;73.20
4425;DHT22;2225;53.568;13.266;2023-04-25T07:50:17;14.10;72.30
4425;DHT22;2225;53.568;13.266;2023-04-25T07:52:46;14.10;70.30
4425;DHT22;2225;53.568;13.266;2023-04-25T07:55:20;14.20;71.50
4425;DHT22;2225;53.568;13.266;2023-04-25T07:57:56;14.20;70.20
4425;DHT22;2225;53.568;13.266;2023-04-25T08:00:23;14.20;71.00
4425;DHT22;2225;53.568;13.266;2023-04-25T08:03:01;14.30;71.20
4425;DHT22;2225;53.568;13.266;2023-04-25T08:05:29;14.30;70.80
4425;DHT22;2225;53.568;13.266;2023-04-25T08:08:02;14.40;70.60
4425;DHT22;2225;53.568;13.266;2023-04-25T08:10:29;14.40;68.60
4425;DHT22;2225;53.568;13.266;2023-04-25T08:12:56;14.40;68.70
4425;DHT22;2225;53.568;13.266;2023-04-25T08:15:23;14.50;69.20
4425;DHT22;2225;53.568;13.266;2023-04-25T08:17:50;14.50;69.20
4425;DHT22;2225;53.568;13.266;2023-04-25T08:20:18;14.50;69.80
4425;DHT22;2225;53.568;13.266;2023-04-25T08:22:45;14.50;68.60
4425;DHT22;2225;53.568;13.266;2023-04-25T08:25:24;14.50;68.30
4425;DHT22;2225;53.568;13.266;2023-04-25T08:27:52;14.50;69.50
4425;DHT22;2225;53.568;13.266;2023-04-25T08:30:21;14.50;68.50
4425;DHT22;2225;53.568;13.266;2023-04-25T08:32:49;14.40;67.20
4425;DHT22;2225;53.568;13.266;2023-04-25T08:35:30;14.40;66.60
4425;DHT22;2225;53.568;13.266;2023-04-25T08:37:57;14.30;67.70
4425;DHT22;2225;53.568;13.266;2023-04-25T08:40:27;14.30;67.50
4425;DHT22;2225;53.568;13.266;2023-04-25T08:43:01;14.30;66.30
4425;DHT22;2225;53.568;13.266;2023-04-25T08:45:31;14.30;65.90
4425;DHT22;2225;53.568;13.266;2023-04-25T08:48:00;14.20;65.80
4425;DHT22;2225;53.568;13.266;2023-04-25T08:50:27;14.30;66.50
4425;DHT22;2225;53.568;13.266;2023-04-25T08:52:59;14.30;67.60
4425;DHT22;2225;53.568;13.266;2023-04-25T08:55:30;14.40;63.20
4425;DHT22;2225;53.568;13.266;2023-04-25T08:57:59;14.40;63.30
4425;DHT22;2225;53.568;13.266;2023-04-25T09:00:27;14.50;64.00
4425;DHT22;2225;53.568;13.266;2023-04-25T09:02:56;14.50;63.50
4425;DHT22;2225;53.568;13.266;2023-04-25T09:05:28;14.50;63.70
4425;DHT22;2225;53.568;13.266;2023-04-25T09:07:55;14.60;64.40
4425;DHT22;2225;53.568;13.266;2023-04-25T09:10:23;14.60;62.50
4425;DHT22;2225;53.568;13.266;2023-04-25T09:13:14;14.60;60.20
4425;DHT22;2225;53.568;13.266;2023-04-25T09:16:00;14.60;59.10
4425;DHT22;2225;53.568;13.266;2023-04-25T09:18:38;14.60;59.90
4425;DHT22;2225;53.568;13.266;2023-04-25T09:21:08;14.60;60.40
4425;DHT22;2225;53.568;13.266;2023-04-25T09:23:46;14.70;61.40
4425;DHT22;2225;53.568;13.266;2023-04-25T09:26:15;14.70;60.00
4425;DHT22;2225;53.568;13.266;2023-04-25T09:28:44;14.80;59.70
4425;DHT22;2225;53.568;13.266;2023-04-25T09:31:24;14.80;60.50
4425;DHT22;2225;53.568;13.266;2023-04-25T09:33:59;14.90;60.90
4425;DHT22;2225;53.568;13.266;2023-04-25T09:36:39;14.90;59.60
4425;DHT22;2225;53.568;13.266;2023-04-25T09:39:28;15.00;59.10
4425;DHT22;2225;53.568;13.266;2023-04-25T09:42:04;15.10;60.10
4425;DHT22;2225;53.568;13.266;2023-04-25T09:44:31;15.10;58.90
4425;DHT22;2225;53.568;13.266;2023-04-25T09:46:58;15.20;59.30
4425;DHT22;2225;53.568;13.266;2023-04-25T09:49:28;15.20;58.70
4425;DHT22;2225;53.568;13.266;2023-04-25T09:52:16;15.20;58.30
4425;DHT22;2225;53.568;13.266;2023-04-25T09:54:55;15.20;58.10
4425;DHT22;2225;53.568;13.266;2023-04-25T09:57:29;15.10;58.50
4425;DHT22;2225;53.568;13.266;2023-04-25T10:00:00;15.10;58.20
4425;DHT22;2225;53.568;13.266;2023-04-25T10:02:42;15.00;58.50
4425;DHT22;2225;53.568;13.266;2023-04-25T10:05:16;15.00;58.20
4425;DHT22;2225;53.568;13.266;2023-04-25T10:07:44;14.90;58.30
4425;DHT22;2225;53.568;13.266;2023-04-25T10:10:15;14.90;59.00
4425;DHT22;2225;53.568;13.266;2023-04-25T10:12:43;14.90;59.30
4425;DHT22;2225;53.568;13.266;2023-04-25T10:15:12;14.90;59.70
4425;DHT22;2225;53.568;13.266;2023-04-25T10:17:40;14.80;58.50
4425;DHT22;2225;53.568;13.266;2023-04-25T10:20:07;14.80;59.00
4425;DHT22;2225;53.568;13.266;2023-04-25T10:22:41;14.80;58.90
4425;DHT22;2225;53.568;13.266;2023-04-25T10:25:10;14.70;57.80
4425;DHT22;2225;53.568;13.266;2023-04-25T10:27:38;14.60;58.30
4425;DHT22;2225;53.568;13.266;2023-04-25T10:30:10;14.60;58.90
4425;DHT22;2225;53.568;13.266;2023-04-25T10:32:42;14.60;59.70
4425;DHT22;2225;53.568;13.266;2023-04-25T10:35:24;14.50;59.30
4425;DHT22;2225;53.568;13.266;2023-04-25T10:38:18;14.40;59.40
4425;DHT22;2225;53.568;13.266;2023-04-25T10:41:08;14.40;60.30
4425;DHT22;2225;53.568;13.266;2023-04-25T10:43:40;14.40;61.10
4425;DHT22;2225;53.568;13.266;2023-04-25T10:46:25;14.40;61.40
4425;DHT22;2225;53.568;13.266;2023-04-25T10:48:58;14.50;62.50
4425;DHT22;2225;53.568;13.266;2023-04-25T10:54:09;14.50;62.00
4425;DHT22;2225;53.568;13.266;2023-04-25T10:59:12;14.60;62.90
4425;DHT22;2225;53.568;13.266;2023-04-25T11:01:45;14.60;62.00
4425;DHT22;2225;53.568;13.266;2023-04-25T11:04:24;14.60;61.50
4425;DHT22;2225;53.568;13.266;2023-04-25T11:09:39;14.60;61.60
4425;DHT22;2225;53.568;13.266;2023-04-25T11:12:10;14.60;61.90
4425;DHT22;2225;53.568;13.266;2023-04-25T11:14:38;14.60;61.90
4425;DHT22;2225;53.568;13.266;2023-04-25T11:17:10;14.70;62.60
4425;DHT22;2225;53.568;13.266;2023-04-25T11:19:37;14.70;61.80
4425;DHT22;2225;53.568;13.266;2023-04-25T11:22:04;14.70;61.50
4425;DHT22;2225;53.568;13.266;2023-04-25T11:24:34;14.70;61.20
4425;DHT22;2225;53.568;13.266;2023-04-25T11:27:02;14.70;61.30
4425;DHT22;2225;53.568;13.266;2023-04-25T11:29:31;14.60;61.70
4425;DHT22;2225;53.568;13.266;2023-04-25T11:32:00;14.50;61.80
4425;DHT22;2225;53.568;13.266;2023-04-25T11:34:28;14.50;62.10
4425;DHT22;2225;53.568;13.266;2023-04-25T11:37:01;14.40;62.60
4425;DHT22;2225;53.568;13.266;2023-04-25T11:39:29;14.40;62.70
4425;DHT22;2225;53.568;13.266;2023-04-25T11:41:56;14.40;62.90
4425;DHT22;2225;53.568;13.266;2023-04-25T11:44:23;14.40;63.30
4425;DHT22;2225;53.568;13.266;2023-04-25T11:46:50;14.40;64.20
4425;DHT22;2225;53.568;13.266;2023-04-25T11:49:17;14.40;64.20
4425;DHT22;2225;53.568;13.266;2023-04-25T11:51:46;14.40;64.20
4425;DHT22;2225;53.568;13.266;2023-04-25T11:54:14;14.40;64.60
4425;DHT22;2225;53.568;13.266;2023-04-25T11:56:45;14.50;65.30
4425;DHT22;2225;53.568;13.266;2023-04-25T11:59:13;14.60;62.50
4425;DHT22;2225;53.568;13.266;2023-04-25T12:01:49;14.60;62.20
4425;DHT22;2225;53.568;13.266;2023-04-25T12:04:25;14.70;62.00
4425;DHT22;2225;53.568;13.266;2023-04-25T12:06:54;14.70;62.50
4425;DHT22;2225;53.568;13.266;2023-04-25T12:09:30;14.80;61.90
4425;DHT22;2225;53.568;13.266;2023-04-25T12:11:59;14.80;61.10
4425;DHT22;2225;53.568;13.266;2023-04-25T12:14:34;14.80;60.50
4425;DHT22;2225;53.568;13.266;2023-04-25T12:17:03;14.80;61.20
4425;DHT22;2225;53.568;13.266;2023-04-25T12:19:33;14.70;60.90
4425;DHT22;2225;53.568;13.266;2023-04-25T12:22:22;14.70;62.00
4425;DHT22;2225;53.568;13.266;2023-04-25T12:24:50;14.80;62.20
4425;DHT22;2225;53.568;13.266;2023-04-25T12:27:17;14.80;62.30
4425;DHT22;2225;53.568;13.266;2023-04-25T12:29:55;14.80;61.90
4425;DHT22;2225;53.568;13.266;2023-04-25T12:32:23;14.90;61.70
4425;DHT22;2225;53.568;13.266;2023-04-25T12:34:50;15.00;61.40
4425;DHT22;2225;53.568;13.266;2023-04-25T12:37:17;15.00;61.30
4425;DHT22;2225;53.568;13.266;2023-04-25T12:39:44;15.00;61.20
4425;DHT22;2225;53.568;13.266;2023-04-25T12:42:11;15.00;61.50
4425;DHT22;2225;53.568;13.266;2023-04-25T12:44:39;15.00;60.20
4425;DHT22;2225;53.568;13.266;2023-04-25T12:47:07;14.90;61.00
4425;DHT22;2225;53.568;13.266;2023-04-25T12:49:34;14.90;61.80
4425;DHT22;2225;53.568;13.266;2023-04-25T12:52:01;14.90;62.40
4425;DHT22;2225;53.568;13.266;2023-04-25T12:54:28;14.80;62.90
4425;DHT22;2225;53.568;13.266;2023-04-25T12:56:55;14.70;63.80
4425;DHT22;2225;53.568;13.266;2023-04-25T12:59:22;14.70;64.00
4425;DHT22;2225;53.568;13.266;2023-04-25T13:01:49;14.70;64.10
4425;DHT22;2225;53.568;13.266;2023-04-25T13:04:16;14.60;63.70
4425;DHT22;2225;53.568;13.266;2023-04-25T13:06:43;14.60;62.30
4425;DHT22;2225;53.568;13.266;2023-04-25T13:09:10;14.60;62.50
4425;DHT22;2225;53.568;13.266;2023-04-25T13:11:39;14.60;62.10
4425;DHT22;2225;53.568;13.266;2023-04-25T13:14:06;14.60;61.30
4425;DHT22;2225;53.568;13.266;2023-04-25T13:16:33;14.60;61.90
4425;DHT22;2225;53.568;13.266;2023-04-25T13:19:01;14.60;62.20
4425;DHT22;2225;53.568;13.266;2023-04-25T13:21:30;14.60;62.00
4425;DHT22;2225;53.568;13.266;2023-04-25T13:23:59;14.60;61.80
4425;DHT22;2225;53.568;13.266;2023-04-25T13:26:26;14.60;62.60
4425;DHT22;2225;53.568;13.266;2023-04-25T13:28:53;14.60;62.70
4425;DHT22;2225;53.568;13.266;2023-04-25T13:31:20;14.60;62.90
4425;DHT22;2225;53.568;13.266;2023-04-25T13:33:47;14.60;62.80
4425;DHT22;2225;53.568;13.266;2023-04-25T13:36:14;14.60;63.20
4425;DHT22;2225;53.568;13.266;2023-04-25T13:38:42;14.50;63.30
4425;DHT22;2225;53.568;13.266;2023-04-25T13:41:10;14.50;63.80
4425;DHT22;2225;53.568;13.266;2023-04-25T13:43:42;14.60;65.40
4425;DHT22;2225;53.568;13.266;2023-04-25T13:46:09;14.50;66.70
4425;DHT22;2225;53.568;13.266;2023-04-25T13:48:55;14.50;67.60
4425;DHT22;2225;53.568;13.266;2023-04-25T13:51:35;14.50;68.30
4425;DHT22;2225;53.568;13.266;2023-04-25T13:54:02;14.50;68.60
4425;DHT22;2225;53.568;13.266;2023-04-25T13:56:29;14.50;69.00
4425;DHT22;2225;53.568;13.266;2023-04-25T13:58:56;14.50;69.50
4425;DHT22;2225;53.568;13.266;2023-04-25T14:01:23;14.50;69.80
4425;DHT22;2225;53.568;13.266;2023-04-25T14:03:50;14.50;70.30
4425;DHT22;2225;53.568;13.266;2023-04-25T14:06:18;14.50;70.70
4425;DHT22;2225;53.568;13.266;2023-04-25T14:08:50;14.50;70.80
4425;DHT22;2225;53.568;13.266;2023-04-25T14:11:17;14.60;71.00
4425;DHT22;2225;53.568;13.266;2023-04-25T14:13:45;14.60;70.90
4425;DHT22;2225;53.568;13.266;2023-04-25T14:16:12;14.70;70.80
4425;DHT22;2225;53.568;13.266;2023-04-25T14:18:39;14.80;70.70
4425;DHT22;2225;53.568;13.266;2023-04-25T14:21:06;14.80;70.20
4425;DHT22;2225;53.568;13.266;2023-04-25T14:23:33;14.90;69.70
4425;DHT22;2225;53.568;13.266;2023-04-25T14:26:00;15.00;69.70
4425;DHT22;2225;53.568;13.266;2023-04-25T14:28:27;15.10;68.50
4425;DHT22;2225;53.568;13.266;2023-04-25T14:30:54;15.10;67.30
4425;DHT22;2225;53.568;13.266;2023-04-25T14:33:21;15.20;66.90
4425;DHT22;2225;53.568;13.266;2023-04-25T14:35:48;15.20;66.40
4425;DHT22;2225;53.568;13.266;2023-04-25T14:38:15;15.20;65.90
4425;DHT22;2225;53.568;13.266;2023-04-25T14:40:42;15.20;65.60
4425;DHT22;2225;53.568;13.266;2023-04-25T14:43:09;15.20;65.20
4425;DHT22;2225;53.568;13.266;2023-04-25T14:45:36;15.20;65.20
4425;DHT22;2225;53.568;13.266;2023-04-25T14:48:03;15.20;65.40
4425;DHT22;2225;53.568;13.266;2023-04-25T14:50:30;15.20;66.10
4425;DHT22;2225;53.568;13.266;2023-04-25T14:52:57;15.20;66.40
4425;DHT22;2225;53.568;13.266;2023-04-25T14:55:27;15.30;66.80
4425;DHT22;2225;53.568;13.266;2023-04-25T14:57:54;15.20;66.40
4425;DHT22;2225;53.568;13.266;2023-04-25T15:00:23;15.30;66.50
4425;DHT22;2225;53.568;13.266;2023-04-25T15:02:51;15.20;66.70
4425;DHT22;2225;53.568;13.266;2023-04-25T15:05:19;15.20;66.50
4425;DHT22;2225;53.568;13.266;2023-04-25T15:07:46;15.10;66.60
4425;DHT22;2225;53.568;13.266;2023-04-25T15:10:14;15.00;66.60
4425;DHT22;2225;53.568;13.266;2023-04-25T15:12:43;15.00;67.00
4425;DHT22;2225;53.568;13.266;2023-04-25T15:15:13;14.90;66.80
4425;DHT22;2225;53.568;13.266;2023-04-25T15:17:52;14.90;66.70
4425;DHT22;2225;53.568;13.266;2023-04-25T15:20:24;14.80;67.20
4425;DHT22;2225;53.568;13.266;2023-04-25T15:22:51;14.70;65.60
4425;DHT22;2225;53.568;13.266;2023-04-25T15:25:18;14.60;65.10
4425;DHT22;2225;53.568;13.266;2023-04-25T15:27:46;14.60;65.50
4425;DHT22;2225;53.568;13.266;2023-04-25T15:30:15;14.50;65.90
4425;DHT22;2225;53.568;13.266;2023-04-25T15:32:47;14.40;66.40
4425;DHT22;2225;53.568;13.266;2023-04-25T15:35:14;14.40;67.10
4425;DHT22;2225;53.568;13.266;2023-04-25T15:37:41;14.30;67.30
4425;DHT22;2225;53.568;13.266;2023-04-25T15:40:11;14.30;67.10
4425;DHT22;2225;53.568;13.266;2023-04-25T15:42:45;14.30;67.20
4425;DHT22;2225;53.568;13.266;2023-04-25T15:45:20;14.20;66.80
4425;DHT22;2225;53.568;13.266;2023-04-25T15:47:49;14.20;66.30
4425;DHT22;2225;53.568;13.266;2023-04-25T15:50:18;14.30;66.20
4425;DHT22;2225;53.568;13.266;2023-04-25T15:52:47;14.30;66.30
4425;DHT22;2225;53.568;13.266;2023-04-25T15:55:15;14.40;66.30
4425;DHT22;2225;53.568;13.266;2023-04-25T15:57:43;14.40;65.90
4425;DHT22;2225;53.568;13.266;2023-04-25T16:00:11;14.40;66.30
4425;DHT22;2225;53.568;13.266;2023-04-25T16:02:39;14.40;67.10
4425;DHT22;2225;53.568;13.266;2023-04-25T16:05:08;14.30;66.90
4425;DHT22;2225;53.568;13.266;2023-04-25T16:07:38;14.30;66.90
4425;DHT22;2225;53.568;13.266;2023-04-25T16:10:06;14.30;67.20
4425;DHT22;2225;53.568;13.266;2023-04-25T16:12:33;14.30;67.50
4425;DHT22;2225;53.568;13.266;2023-04-25T16:15:00;14.20;66.60